createdAt,value
2023-04-09T00:00:33.800Z,99.99
2023-04-09T00:01:32.965Z,99.99
2023-04-09T00:02:32.631Z,99.99
2023-04-09T00:03:32.488Z,99.99
2023-04-09T00:04:32.263Z,99.99
2023-04-09T00:05:32.546Z,99.99
2023-04-09T00:06:32.154Z,99.99
2023-04-09T00:07:33.073Z,99.99
2023-04-09T00:08:32.341Z,99.99
2023-04-09T00:09:32.095Z,99.99
2023-04-09T00:10:32.913Z,99.99
2023-04-09T00:11:32.274Z,99.99
2023-04-09T00:12:32.529Z,99.99
2023-04-09T00:13:39.181Z,99.99
2023-04-09T00:14:33.339Z,99.99
2023-04-09T00:15:32.192Z,99.99
2023-04-09T00:16:32.390Z,99.99
2023-04-09T00:17:32.234Z,99.99
2023-04-09T00:18:32.208Z,99.99
2023-04-09T00:19:33.040Z,99.99
2023-04-09T00:20:32.920Z,99.99
2023-04-09T00:21:32.205Z,99.99
2023-04-09T00:22:32.128Z,99.99
2023-04-09T00:23:32.142Z,99.99
2023-04-09T00:24:32.250Z,99.99
2023-04-09T00:25:32.110Z,99.99
2023-04-09T00:26:32.298Z,99.99
2023-04-09T00:27:32.215Z,99.99
2023-04-09T00:28:32.315Z,99.99
2023-04-09T00:30:23.525Z,99.99
2023-04-09T00:31:23.632Z,99.99
2023-04-09T00:32:25.231Z,99.99
2023-04-09T00:33:23.480Z,99.99
2023-04-09T00:34:23.457Z,99.99
2023-04-09T00:35:23.436Z,99.99
2023-04-09T00:36:25.862Z,99.99
2023-04-09T00:37:23.451Z,99.99
2023-04-09T00:38:23.419Z,99.99
2023-04-09T00:39:23.445Z,99.99
2023-04-09T00:40:23.409Z,99.99
2023-04-09T00:41:23.386Z,99.99
2023-04-09T00:42:23.373Z,99.99
2023-04-09T00:43:23.361Z,99.99
2023-04-09T00:44:23.371Z,99.99
2023-04-09T00:45:23.386Z,99.99
2023-04-09T00:46:23.355Z,99.99
2023-04-09T00:47:23.409Z,99.99
2023-04-09T00:48:23.312Z,99.99
2023-04-09T00:49:23.327Z,99.99
2023-04-09T00:50:23.355Z,99.99
2023-04-09T00:51:23.307Z,99.99
2023-04-09T00:52:23.274Z,99.99
2023-04-09T00:53:23.303Z,99.99
2023-04-09T00:54:23.263Z,99.99
2023-04-09T00:55:23.273Z,99.99
2023-04-09T00:56:23.234Z,99.99
2023-04-09T00:57:23.228Z,99.99
2023-04-09T00:58:23.222Z,99.99
2023-04-09T00:59:23.207Z,99.99
2023-04-09T01:00:23.184Z,99.99
2023-04-09T01:01:23.192Z,99.99
2023-04-09T01:02:23.289Z,99.99
2023-04-09T01:03:23.259Z,99.99
2023-04-09T01:04:23.161Z,99.99
2023-04-09T01:05:23.152Z,99.99
2023-04-09T01:06:23.159Z,99.99
2023-04-09T01:07:23.144Z,99.99
2023-04-09T01:08:23.091Z,99.99
2023-04-09T01:09:23.139Z,99.99
2023-04-09T01:10:23.100Z,99.99
2023-04-09T01:11:23.106Z,99.99
2023-04-09T01:12:23.058Z,99.99
2023-04-09T01:13:23.067Z,99.99
2023-04-09T01:14:23.056Z,99.99
2023-04-09T01:15:23.043Z,99.99
2023-04-09T01:16:23.043Z,99.99
2023-04-09T01:17:23.008Z,99.99
2023-04-09T01:18:22.996Z,99.99
2023-04-09T01:19:22.970Z,99.99
2023-04-09T01:20:22.974Z,99.99
2023-04-09T01:21:22.979Z,99.99
2023-04-09T01:22:22.946Z,99.99
2023-04-09T01:23:22.949Z,99.99
2023-04-09T01:24:22.925Z,99.99
2023-04-09T01:25:22.933Z,99.99
2023-04-09T01:26:22.918Z,99.99
2023-04-09T01:27:22.902Z,99.99
2023-04-09T01:28:22.904Z,99.99
2023-04-09T01:29:22.869Z,99.99
2023-04-09T01:30:22.908Z,99.99
2023-04-09T01:31:22.876Z,99.99
2023-04-09T01:32:22.905Z,99.99
2023-04-09T01:33:22.939Z,99.99
2023-04-09T01:34:22.825Z,99.99
2023-04-09T01:35:22.836Z,99.99
2023-04-09T01:36:22.858Z,99.99
2023-04-09T01:37:22.811Z,99.99
2023-04-09T01:38:22.787Z,99.99
2023-04-09T01:39:22.784Z,99.99
2023-04-09T01:40:22.813Z,99.99
2023-04-09T01:41:22.780Z,99.99
2023-04-09T01:42:22.753Z,99.99
2023-04-09T01:43:22.750Z,99.99
2023-04-09T01:44:22.739Z,99.99
2023-04-09T01:45:22.744Z,99.99
2023-04-09T01:46:22.819Z,99.99
2023-04-09T01:47:22.776Z,99.99
2023-04-09T01:48:22.673Z,99.99
2023-04-09T01:49:22.705Z,99.99
2023-04-09T01:50:22.659Z,99.99
2023-04-09T01:51:22.659Z,99.99
2023-04-09T01:52:22.631Z,99.99
2023-04-09T01:53:22.645Z,99.99
2023-04-09T01:54:22.619Z,99.99
2023-04-09T01:55:22.629Z,99.99
2023-04-09T01:56:22.619Z,99.99
2023-04-09T01:57:22.580Z,99.99
2023-04-09T01:58:22.591Z,99.99
2023-04-09T01:59:22.569Z,99.99
2023-04-09T02:00:22.584Z,99.99
2023-04-09T02:01:22.617Z,99.99
2023-04-09T02:02:22.639Z,99.99
2023-04-09T02:03:22.590Z,99.99
2023-04-09T02:04:22.544Z,99.99
2023-04-09T02:05:22.508Z,99.99
2023-04-09T02:06:22.484Z,99.99
2023-04-09T02:07:22.481Z,99.99
2023-04-09T02:08:22.466Z,99.99
2023-04-09T02:09:22.502Z,99.99
2023-04-09T02:10:22.444Z,99.99
2023-04-09T02:11:22.462Z,99.99
2023-04-09T02:12:22.413Z,99.99
2023-04-09T02:13:22.427Z,99.99
2023-04-09T02:14:22.409Z,99.99
2023-04-09T02:15:22.416Z,99.99
2023-04-09T02:16:22.416Z,99.99
2023-04-09T02:17:22.391Z,99.99
2023-04-09T02:18:22.372Z,99.99
2023-04-09T02:19:22.397Z,99.99
2023-04-09T02:20:22.339Z,99.99
2023-04-09T02:21:22.363Z,99.99
2023-04-09T02:22:22.335Z,99.99
2023-04-09T02:23:22.345Z,99.99
2023-04-09T02:24:22.302Z,99.99
2023-04-09T02:25:22.301Z,99.99
2023-04-09T02:26:22.290Z,99.99
2023-04-09T02:27:22.276Z,99.99
2023-04-09T02:28:22.251Z,99.99
2023-04-09T02:29:22.262Z,99.99
2023-04-09T02:30:22.252Z,99.99
2023-04-09T02:31:22.259Z,99.99
2023-04-09T02:32:22.250Z,99.99
2023-04-09T02:33:22.247Z,99.99
2023-04-09T02:34:22.198Z,99.99
2023-04-09T02:35:22.346Z,99.99
2023-04-09T02:36:22.184Z,99.99
2023-04-09T02:37:22.173Z,99.99
2023-04-09T02:38:22.154Z,99.99
2023-04-09T02:39:22.198Z,99.99
2023-04-09T02:40:22.132Z,99.99
2023-04-09T02:41:22.146Z,99.99
2023-04-09T02:42:22.116Z,99.99
2023-04-09T02:43:22.108Z,99.99
2023-04-09T02:44:22.095Z,99.99
2023-04-09T02:45:22.107Z,99.99
2023-04-09T02:46:22.145Z,99.99
2023-04-09T02:47:22.095Z,99.99
2023-04-09T02:48:22.054Z,99.99
2023-04-09T02:49:22.042Z,99.99
2023-04-09T02:50:22.058Z,99.99
2023-04-09T02:51:22.030Z,99.99
2023-04-09T02:52:21.996Z,99.99
2023-04-09T02:53:22.016Z,99.99
2023-04-09T02:54:21.995Z,99.99
2023-04-09T02:55:21.994Z,99.99
2023-04-09T02:56:21.966Z,99.99
2023-04-09T02:57:21.968Z,99.99
2023-04-09T02:58:21.955Z,99.99
2023-04-09T02:59:21.942Z,99.99
2023-04-09T03:00:21.926Z,99.99
2023-04-09T03:01:21.959Z,99.99
2023-04-09T03:02:22.152Z,99.99
2023-04-09T03:03:22.120Z,99.99
2023-04-09T03:04:21.928Z,99.99
2023-04-09T03:05:21.905Z,99.99
2023-04-09T03:06:21.910Z,99.99
2023-04-09T03:07:21.863Z,99.99
2023-04-09T03:08:21.833Z,99.99
2023-04-09T03:09:21.855Z,99.99
2023-04-09T03:10:21.820Z,99.99
2023-04-09T03:11:21.827Z,99.99
2023-04-09T03:12:21.815Z,99.99
2023-04-09T03:13:21.805Z,99.99
2023-04-09T03:14:21.819Z,99.99
2023-04-09T03:15:21.794Z,99.99
2023-04-09T03:16:21.814Z,99.99
2023-04-09T03:17:21.771Z,99.99
2023-04-09T03:18:21.754Z,99.99
2023-04-09T03:19:21.733Z,99.99
2023-04-09T03:20:21.778Z,99.99
2023-04-09T03:21:21.735Z,99.99
2023-04-09T03:22:21.712Z,99.99
2023-04-09T03:23:21.720Z,99.99
2023-04-09T03:24:21.710Z,99.99
2023-04-09T03:25:21.683Z,99.99
2023-04-09T03:26:21.685Z,99.99
2023-04-09T03:27:21.683Z,99.99
2023-04-09T03:28:21.636Z,99.99
2023-04-09T03:29:21.645Z,99.99
2023-04-09T03:30:21.641Z,99.99
2023-04-09T03:31:21.653Z,99.99
2023-04-09T03:32:21.604Z,99.99
2023-04-09T03:33:21.615Z,99.99
2023-04-09T03:34:21.589Z,99.99
2023-04-09T03:35:21.585Z,99.99
2023-04-09T03:36:21.549Z,99.99
2023-04-09T03:37:21.640Z,99.99
2023-04-09T03:38:21.538Z,99.99
2023-04-09T03:39:21.525Z,99.99
2023-04-09T03:40:21.520Z,99.99
2023-04-09T03:41:21.506Z,99.99
2023-04-09T03:42:21.497Z,99.99
2023-04-09T03:43:21.509Z,99.99
2023-04-09T03:44:21.474Z,99.99
2023-04-09T03:45:21.479Z,99.99
2023-04-09T03:46:21.464Z,99.99
2023-04-09T03:47:21.491Z,99.99
2023-04-09T03:48:21.435Z,99.99
2023-04-09T03:49:21.427Z,99.99
2023-04-09T03:50:21.441Z,99.99
2023-04-09T03:51:21.434Z,99.99
2023-04-09T03:52:21.407Z,99.99
2023-04-09T03:53:21.430Z,99.99
2023-04-09T03:54:21.390Z,99.99
2023-04-09T03:55:21.393Z,99.99
2023-04-09T03:56:21.370Z,99.99
2023-04-09T03:57:21.347Z,99.99
2023-04-09T03:58:21.313Z,99.99
2023-04-09T03:59:21.320Z,99.99
2023-04-09T04:00:21.304Z,99.99
2023-04-09T04:01:21.319Z,99.99
2023-04-09T04:02:21.375Z,99.99
2023-04-09T04:03:21.413Z,99.99
2023-04-09T04:04:23.583Z,99.99
2023-04-09T04:05:21.267Z,99.99
2023-04-09T04:06:21.247Z,99.99
2023-04-09T04:07:21.249Z,99.99
2023-04-09T04:08:21.294Z,99.99
2023-04-09T04:09:21.226Z,99.99
2023-04-09T04:10:21.251Z,99.99
2023-04-09T04:11:21.212Z,99.99
2023-04-09T04:12:21.181Z,99.99
2023-04-09T04:13:21.231Z,99.99
2023-04-09T04:14:21.219Z,99.99
2023-04-09T04:15:21.155Z,99.99
2023-04-09T04:16:21.173Z,99.99
2023-04-09T04:17:21.203Z,99.99
2023-04-09T04:18:21.125Z,99.99
2023-04-09T04:19:21.113Z,99.99
2023-04-09T04:20:21.105Z,99.99
2023-04-09T04:21:21.083Z,99.99
2023-04-09T04:22:21.089Z,99.99
2023-04-09T04:23:21.079Z,99.99
2023-04-09T04:24:21.050Z,99.99
2023-04-09T04:25:21.072Z,99.99
2023-04-09T04:26:21.048Z,99.99
2023-04-09T04:27:21.016Z,99.99
2023-04-09T04:28:21.028Z,99.99
2023-04-09T04:29:21.004Z,99.99
2023-04-09T04:30:21.014Z,99.99
2023-04-09T04:31:20.976Z,99.99
2023-04-09T04:32:20.979Z,99.99
2023-04-09T04:33:20.966Z,99.99
2023-04-09T04:34:20.964Z,99.99
2023-04-09T04:35:20.996Z,99.99
2023-04-09T04:36:20.946Z,99.99
2023-04-09T04:37:20.909Z,99.99
2023-04-09T04:38:20.947Z,99.99
2023-04-09T04:39:20.971Z,99.99
2023-04-09T04:40:20.889Z,99.99
2023-04-09T04:41:20.879Z,99.99
2023-04-09T04:42:20.890Z,99.99
2023-04-09T04:43:20.865Z,99.99
2023-04-09T04:44:20.864Z,99.99
2023-04-09T04:45:20.847Z,99.99
2023-04-09T04:46:21.096Z,99.99
2023-04-09T04:47:20.875Z,99.99
2023-04-09T04:48:20.817Z,99.99
2023-04-09T04:49:20.806Z,99.99
2023-04-09T04:50:20.811Z,99.99
2023-04-09T04:51:20.770Z,99.99
2023-04-09T04:52:20.790Z,99.99
2023-04-09T04:53:20.759Z,99.99
2023-04-09T04:54:20.764Z,99.99
2023-04-09T04:55:20.762Z,99.99
2023-04-09T04:56:20.759Z,99.99
2023-04-09T04:57:20.704Z,99.99
2023-04-09T04:58:20.704Z,99.99
2023-04-09T04:59:20.702Z,99.99
2023-04-09T05:00:20.707Z,99.99
2023-04-09T05:01:20.764Z,99.99
2023-04-09T05:02:20.793Z,99.99
2023-04-09T05:03:20.771Z,99.99
2023-04-09T05:04:20.641Z,99.99
2023-04-09T05:05:20.677Z,99.99
2023-04-09T05:06:20.634Z,99.99
2023-04-09T05:07:20.596Z,99.99
2023-04-09T05:08:20.646Z,99.99
2023-04-09T05:09:22.369Z,99.99
2023-04-09T05:10:20.694Z,99.99
2023-04-09T05:11:20.577Z,99.99
2023-04-09T05:12:20.557Z,99.99
2023-04-09T05:13:20.646Z,99.99
2023-04-09T05:14:20.541Z,99.99
2023-04-09T05:15:20.507Z,99.99
2023-04-09T05:16:20.696Z,99.99
2023-04-09T05:17:20.649Z,99.99
2023-04-09T05:18:20.589Z,99.99
2023-04-09T05:19:20.468Z,99.99
2023-04-09T05:20:20.491Z,99.99
2023-04-09T05:21:20.456Z,99.99
2023-04-09T05:22:20.473Z,99.99
2023-04-09T05:23:20.433Z,99.99
2023-04-09T05:24:20.470Z,99.99
2023-04-09T05:25:20.636Z,99.99
2023-04-09T05:26:20.418Z,99.99
2023-04-09T05:27:20.546Z,99.99
2023-04-09T05:28:20.495Z,99.99
2023-04-09T05:29:20.359Z,99.99
2023-04-09T05:30:20.423Z,99.99
2023-04-09T05:31:20.490Z,99.99
2023-04-09T05:32:20.519Z,99.99
2023-04-09T05:33:20.400Z,99.99
2023-04-09T05:34:20.331Z,99.99
2023-04-09T05:35:20.318Z,99.99
2023-04-09T05:36:20.351Z,99.99
2023-04-09T05:37:20.334Z,99.99
2023-04-09T05:38:20.299Z,99.99
2023-04-09T05:39:20.285Z,99.99
2023-04-09T05:40:20.296Z,99.99
2023-04-09T05:41:20.408Z,99.99
2023-04-09T05:42:20.243Z,99.99
2023-04-09T05:43:20.413Z,99.99
2023-04-09T05:44:20.253Z,99.99
2023-04-09T05:45:20.223Z,99.99
2023-04-09T05:46:20.278Z,99.99
2023-04-09T05:47:20.373Z,99.99
2023-04-09T05:48:20.211Z,99.99
2023-04-09T05:49:20.218Z,99.99
2023-04-09T05:50:20.184Z,99.99
2023-04-09T05:51:20.286Z,99.99
2023-04-09T05:52:20.209Z,99.99
2023-04-09T05:53:21.167Z,99.99
2023-04-09T05:54:20.199Z,99.99
2023-04-09T05:55:20.115Z,99.99
2023-04-09T05:56:20.126Z,99.99
2023-04-09T05:57:20.221Z,99.99
2023-04-09T05:58:20.083Z,99.99
2023-04-09T05:59:20.090Z,99.99
2023-04-09T06:00:20.377Z,99.99
2023-04-09T06:01:20.040Z,99.99
2023-04-09T06:02:20.212Z,99.99
2023-04-09T06:03:20.154Z,99.99
2023-04-09T06:04:20.201Z,99.99
2023-04-09T06:05:20.032Z,99.99
2023-04-09T06:06:19.996Z,99.99
2023-04-09T06:07:19.970Z,99.99
2023-04-09T06:08:19.999Z,99.99
2023-04-09T06:09:19.965Z,99.99
2023-04-09T06:10:19.964Z,99.99
2023-04-09T06:11:19.954Z,99.99
2023-04-09T06:12:19.958Z,99.99
2023-04-09T06:13:19.948Z,99.99
2023-04-09T06:14:19.927Z,99.99
2023-04-09T06:15:19.903Z,99.99
2023-04-09T06:16:20.022Z,99.99
2023-04-09T06:17:19.915Z,99.99
2023-04-09T06:18:19.879Z,99.99
2023-04-09T06:19:19.903Z,99.99
2023-04-09T06:20:19.871Z,99.99
2023-04-09T06:21:19.865Z,99.99
2023-04-09T06:22:19.848Z,99.99
2023-04-09T06:23:19.804Z,99.99
2023-04-09T06:24:19.855Z,99.99
2023-04-09T06:25:19.819Z,99.99
2023-04-09T06:26:19.811Z,99.99
2023-04-09T06:27:19.761Z,99.99
2023-04-09T06:28:19.778Z,99.99
2023-04-09T06:29:20.365Z,99.99
2023-04-09T06:30:26.773Z,99.99
2023-04-09T06:31:19.754Z,99.99
2023-04-09T06:32:22.455Z,99.99
2023-04-09T06:33:22.737Z,99.99
2023-04-09T06:34:19.707Z,99.99
2023-04-09T06:35:19.680Z,99.99
2023-04-09T06:36:19.676Z,99.99
2023-04-09T06:37:19.678Z,99.99
2023-04-09T06:38:19.691Z,99.99
2023-04-09T06:39:19.625Z,99.99
2023-04-09T06:40:22.166Z,99.99
2023-04-09T06:41:19.650Z,99.99
2023-04-09T06:42:19.813Z,99.99
2023-04-09T06:43:19.605Z,99.99
2023-04-09T06:44:19.623Z,99.99
2023-04-09T06:45:19.575Z,99.99
2023-04-09T06:46:19.596Z,99.99
2023-04-09T06:47:19.548Z,99.99
2023-04-09T06:48:19.540Z,99.99
2023-04-09T06:49:19.518Z,99.99
2023-04-09T06:50:19.692Z,99.99
2023-04-09T06:51:19.516Z,99.99
2023-04-09T06:52:20.472Z,99.99
2023-04-09T06:53:19.516Z,99.99
2023-04-09T06:54:19.646Z,99.99
2023-04-09T06:55:19.641Z,99.99
2023-04-09T06:56:19.459Z,99.99
2023-04-09T06:57:19.469Z,99.99
2023-04-09T06:58:19.479Z,99.99
2023-04-09T06:59:19.418Z,99.99
2023-04-09T07:00:19.513Z,99.99
2023-04-09T07:01:19.547Z,99.99
2023-04-09T07:02:19.509Z,99.99
2023-04-09T07:03:19.614Z,99.99
2023-04-09T07:04:19.695Z,99.99
2023-04-09T07:05:19.363Z,99.99
2023-04-09T07:06:19.392Z,99.99
2023-04-09T07:07:19.342Z,99.99
2023-04-09T07:08:19.344Z,99.99
2023-04-09T07:09:19.326Z,99.99
2023-04-09T07:10:19.356Z,99.99
2023-04-09T07:11:19.286Z,99.99
2023-04-09T07:12:19.430Z,99.99
2023-04-09T07:13:19.402Z,99.99
2023-04-09T07:14:19.348Z,99.99
2023-04-09T07:15:19.264Z,99.99
2023-04-09T07:16:19.295Z,99.99
2023-04-09T07:17:19.248Z,99.99
2023-04-09T07:18:19.225Z,99.99
2023-04-09T07:19:19.209Z,99.99
2023-04-09T07:20:20.154Z,99.99
2023-04-09T07:21:19.191Z,99.99
2023-04-09T07:22:19.177Z,99.99
2023-04-09T07:23:19.166Z,99.99
2023-04-09T07:24:19.280Z,99.99
2023-04-09T07:25:19.154Z,99.99
2023-04-09T07:26:19.182Z,99.99
2023-04-09T07:27:19.125Z,99.99
2023-04-09T07:28:19.130Z,99.99
2023-04-09T07:29:19.111Z,99.99
2023-04-09T07:30:19.126Z,99.99
2023-04-09T07:31:19.162Z,99.99
2023-04-09T07:32:19.090Z,99.99
2023-04-09T07:33:19.084Z,99.99
2023-04-09T07:34:19.080Z,99.99
2023-04-09T07:35:19.064Z,99.99
2023-04-09T07:36:19.112Z,99.99
2023-04-09T07:37:19.004Z,99.99
2023-04-09T07:38:20.086Z,99.99
2023-04-09T07:39:19.010Z,99.99
2023-04-09T07:40:19.020Z,99.99
2023-04-09T07:41:19.099Z,99.99
2023-04-09T07:42:18.994Z,99.99
2023-04-09T07:43:20.788Z,99.99
2023-04-09T07:44:19.045Z,99.99
2023-04-09T07:45:19.002Z,99.99
2023-04-09T07:46:19.027Z,99.99
2023-04-09T07:47:18.967Z,99.99
2023-04-09T07:48:18.965Z,99.99
2023-04-09T07:49:18.911Z,99.99
2023-04-09T07:50:18.908Z,99.99
2023-04-09T07:51:18.929Z,99.99
2023-04-09T07:52:18.895Z,99.99
2023-04-09T07:53:18.858Z,99.99
2023-04-09T07:54:18.881Z,99.99
2023-04-09T07:55:18.877Z,99.99
2023-04-09T07:56:18.973Z,99.99
2023-04-09T07:57:18.818Z,99.99
2023-04-09T07:58:18.842Z,99.99
2023-04-09T07:59:18.817Z,99.99
2023-04-09T08:00:18.844Z,99.99
2023-04-09T08:01:18.863Z,99.99
2023-04-09T08:02:18.849Z,99.99
2023-04-09T08:03:18.971Z,99.99
2023-04-09T08:04:18.984Z,99.99
2023-04-09T08:05:18.741Z,99.99
2023-04-09T08:06:18.726Z,99.99
2023-04-09T08:07:18.712Z,99.99
2023-04-09T08:08:18.703Z,99.99
2023-04-09T08:09:18.758Z,99.99
2023-04-09T08:10:18.679Z,99.99
2023-04-09T08:11:18.755Z,99.99
2023-04-09T08:12:18.669Z,99.99
2023-04-09T08:13:18.638Z,99.99
2023-04-09T08:14:18.660Z,99.99
2023-04-09T08:15:18.702Z,99.99
2023-04-09T08:16:18.691Z,99.99
2023-04-09T08:17:18.600Z,99.99
2023-04-09T08:18:18.618Z,99.99
2023-04-09T08:19:18.617Z,99.99
2023-04-09T08:20:18.730Z,99.99
2023-04-09T08:21:18.573Z,99.99
2023-04-09T08:22:18.608Z,99.99
2023-04-09T08:23:18.532Z,99.99
2023-04-09T08:24:18.550Z,99.99
2023-04-09T08:25:18.628Z,99.99
2023-04-09T08:26:18.516Z,99.99
2023-04-09T08:27:18.540Z,99.99
2023-04-09T08:28:18.473Z,99.99
2023-04-09T08:29:18.603Z,99.99
2023-04-09T08:30:19.481Z,99.99
2023-04-09T08:31:18.479Z,97.78
2023-04-09T08:32:18.536Z,97.33
2023-04-09T08:33:18.442Z,96.72
2023-04-09T08:34:18.453Z,93.23
2023-04-09T08:35:18.464Z,91.83
2023-04-09T08:36:18.410Z,92.14
2023-04-09T08:37:18.380Z,91.93
2023-04-09T08:38:18.424Z,91.77
2023-04-09T08:39:18.378Z,92.74
2023-04-09T08:40:18.373Z,94.03
2023-04-09T08:41:18.361Z,92.76
2023-04-09T08:42:18.321Z,90.16
2023-04-09T08:43:18.312Z,86.60
2023-04-09T08:44:18.340Z,80.16
2023-04-09T08:45:18.312Z,76.12
2023-04-09T08:46:18.497Z,71.50
2023-04-09T08:47:18.311Z,70.31
2023-04-09T08:48:18.325Z,68.18
2023-04-09T08:49:18.277Z,64.93
2023-04-09T08:50:18.243Z,63.04
2023-04-09T08:51:18.325Z,62.43
2023-04-09T08:52:18.267Z,61.82
2023-04-09T08:53:18.247Z,60.42
2023-04-09T08:54:18.231Z,59.14
2023-04-09T08:55:18.256Z,58.16
2023-04-09T08:56:18.268Z,56.86
2023-04-09T08:57:18.201Z,57.09
2023-04-09T08:58:18.184Z,58.22
2023-04-09T08:59:18.192Z,59.12
2023-04-09T09:00:18.174Z,58.52
2023-04-09T09:01:18.198Z,57.24
2023-04-09T09:02:18.195Z,59.00
2023-04-09T09:03:18.270Z,58.80
2023-04-09T09:04:18.118Z,58.92
2023-04-09T09:05:18.088Z,57.93
2023-04-09T09:06:18.075Z,57.17
2023-04-09T09:07:18.092Z,59.41
2023-04-09T09:08:18.027Z,61.59
2023-04-09T09:09:18.051Z,62.74
2023-04-09T09:10:18.029Z,61.59
2023-04-09T09:11:18.043Z,59.43
2023-04-09T09:12:18.005Z,58.56
2023-04-09T09:13:18.968Z,56.38
2023-04-09T09:14:18.003Z,56.10
2023-04-09T09:15:18.007Z,56.92
2023-04-09T09:16:18.068Z,55.42
2023-04-09T09:17:18.015Z,54.43
2023-04-09T09:18:17.947Z,53.67
2023-04-09T09:19:17.959Z,53.47
2023-04-09T09:20:17.911Z,51.00
2023-04-09T09:21:18.172Z,50.80
2023-04-09T09:22:17.926Z,49.65
2023-04-09T09:23:17.895Z,50.15
2023-04-09T09:24:18.844Z,51.38
2023-04-09T09:25:17.887Z,50.80
2023-04-09T09:26:17.897Z,51.81
2023-04-09T09:27:17.912Z,49.97
2023-04-09T09:28:17.868Z,49.62
2023-04-09T09:29:17.827Z,48.61
2023-04-09T09:30:18.795Z,48.17
2023-04-09T09:31:17.972Z,48.25
2023-04-09T09:32:17.859Z,47.14
2023-04-09T09:33:17.814Z,47.85
2023-04-09T09:34:17.809Z,47.54
2023-04-09T09:35:17.875Z,47.06
2023-04-09T09:36:17.769Z,47.04
2023-04-09T09:37:17.784Z,48.67
2023-04-09T09:38:17.737Z,48.57
2023-04-09T09:39:17.895Z,46.61
2023-04-09T09:40:17.772Z,46.22
2023-04-09T09:41:17.714Z,45.18
2023-04-09T09:42:17.710Z,46.98
2023-04-09T09:43:17.713Z,47.74
2023-04-09T09:44:17.653Z,48.39
2023-04-09T09:45:17.752Z,47.04
2023-04-09T09:46:17.681Z,47.74
2023-04-09T09:47:17.680Z,46.61
2023-04-09T09:48:17.752Z,45.79
2023-04-09T09:49:17.706Z,47.19
2023-04-09T09:50:17.707Z,47.60
2023-04-09T09:51:17.588Z,46.61
2023-04-09T09:52:17.583Z,47.24
2023-04-09T09:53:17.604Z,46.09
2023-04-09T09:54:17.533Z,46.07
2023-04-09T09:55:17.645Z,47.38
2023-04-09T09:56:17.551Z,46.80
2023-04-09T09:57:17.560Z,46.81
2023-04-09T09:58:17.569Z,47.16
2023-04-09T09:59:17.526Z,48.17
2023-04-09T10:00:19.334Z,48.27
2023-04-09T10:01:17.643Z,47.99
2023-04-09T10:02:17.712Z,47.99
2023-04-09T10:03:17.541Z,48.32
2023-04-09T10:04:17.523Z,49.37
2023-04-09T10:05:17.454Z,49.42
2023-04-09T10:06:17.439Z,49.82
2023-04-09T10:07:17.446Z,48.61
2023-04-09T10:08:17.421Z,47.56
2023-04-09T10:09:17.398Z,47.64
2023-04-09T10:10:17.388Z,48.35
2023-04-09T10:11:17.374Z,49.42
2023-04-09T10:12:17.366Z,49.22
2023-04-09T10:13:17.381Z,48.99
2023-04-09T10:14:17.352Z,48.27
2023-04-09T10:15:17.398Z,48.27
2023-04-09T10:16:17.356Z,49.85
2023-04-09T10:17:17.476Z,48.35
2023-04-09T10:18:17.381Z,48.77
2023-04-09T10:19:17.342Z,48.55
2023-04-09T10:20:17.304Z,46.81
2023-04-09T10:21:17.319Z,47.09
2023-04-09T10:22:17.294Z,46.80
2023-04-09T10:23:17.243Z,46.57
2023-04-09T10:24:17.219Z,45.53
2023-04-09T10:25:17.225Z,46.59
2023-04-09T10:26:17.226Z,47.07
2023-04-09T10:27:17.705Z,46.41
2023-04-09T10:28:17.210Z,47.42
2023-04-09T10:29:17.273Z,47.92
2023-04-09T10:30:19.193Z,49.15
2023-04-09T10:31:17.185Z,49.90
2023-04-09T10:32:17.165Z,52.19
2023-04-09T10:33:17.167Z,52.26
2023-04-09T10:34:17.147Z,53.07
2023-04-09T10:35:17.163Z,54.56
2023-04-09T10:36:17.168Z,54.58
2023-04-09T10:37:17.121Z,56.05
2023-04-09T10:38:17.120Z,57.17
2023-04-09T10:39:17.123Z,57.40
2023-04-09T10:40:17.082Z,58.11
2023-04-09T10:41:17.077Z,59.14
2023-04-09T10:42:17.024Z,59.27
2023-04-09T10:43:17.032Z,57.04
2023-04-09T10:44:17.042Z,57.86
2023-04-09T10:45:17.023Z,56.84
2023-04-09T10:46:17.030Z,56.84
2023-04-09T10:47:16.996Z,57.24
2023-04-09T10:48:16.961Z,57.73
2023-04-09T10:49:17.019Z,56.59
2023-04-09T10:50:17.044Z,56.38
2023-04-09T10:51:16.952Z,56.66
2023-04-09T10:52:16.938Z,56.15
2023-04-09T10:53:16.928Z,55.57
2023-04-09T10:54:16.988Z,55.27
2023-04-09T10:55:17.162Z,54.18
2023-04-09T10:56:16.931Z,54.59
2023-04-09T10:57:16.875Z,56.21
2023-04-09T10:58:16.866Z,54.69
2023-04-09T10:59:16.871Z,54.99
2023-04-09T11:00:16.838Z,55.93
2023-04-09T11:01:16.839Z,55.12
2023-04-09T11:02:17.270Z,55.93
2023-04-09T11:03:17.368Z,55.25
2023-04-09T11:04:16.837Z,55.76
2023-04-09T11:05:16.894Z,55.96
2023-04-09T11:06:16.790Z,55.45
2023-04-09T11:07:16.818Z,55.85
2023-04-09T11:08:16.766Z,55.76
2023-04-09T11:09:16.874Z,55.35
2023-04-09T11:10:16.835Z,54.53
2023-04-09T11:11:16.846Z,54.46
2023-04-09T11:12:16.721Z,54.13
2023-04-09T11:13:16.875Z,54.03
2023-04-09T11:14:16.874Z,53.83
2023-04-09T11:15:17.090Z,53.80
2023-04-09T11:16:22.833Z,53.91
2023-04-09T11:17:17.687Z,54.21
2023-04-09T11:18:16.647Z,54.61
2023-04-09T11:19:16.684Z,54.82
2023-04-09T11:20:16.692Z,54.51
2023-04-09T11:21:16.682Z,54.82
2023-04-09T11:22:16.647Z,54.31
2023-04-09T11:23:16.765Z,54.00
2023-04-09T11:24:16.704Z,53.80
2023-04-09T11:25:16.602Z,52.69
2023-04-09T11:26:16.598Z,52.48
2023-04-09T11:27:16.560Z,52.66
2023-04-09T11:28:16.762Z,53.78
2023-04-09T11:29:16.520Z,52.76
2023-04-09T11:30:16.554Z,52.46
2023-04-09T11:31:16.659Z,52.39
2023-04-09T11:32:16.497Z,52.48
2023-04-09T11:33:19.164Z,52.86
2023-04-09T11:34:16.481Z,53.19
2023-04-09T11:35:16.476Z,51.57
2023-04-09T11:36:16.546Z,52.18
2023-04-09T11:37:16.446Z,52.08
2023-04-09T11:38:16.585Z,51.90
2023-04-09T11:39:16.429Z,52.00
2023-04-09T11:40:16.455Z,52.03
2023-04-09T11:41:16.417Z,51.42
2023-04-09T11:42:16.387Z,50.84
2023-04-09T11:43:16.388Z,51.01
2023-04-09T11:44:16.361Z,51.42
2023-04-09T11:45:16.412Z,50.84
2023-04-09T11:46:16.369Z,51.12
2023-04-09T11:47:16.328Z,50.00
2023-04-09T11:48:16.328Z,50.31
2023-04-09T11:49:16.327Z,49.06
2023-04-09T11:50:16.729Z,49.65
2023-04-09T11:51:16.348Z,49.75
2023-04-09T11:52:16.436Z,49.93
2023-04-09T11:53:16.266Z,49.73
2023-04-09T11:54:16.262Z,47.80
2023-04-09T11:55:16.312Z,48.51
2023-04-09T11:56:16.234Z,49.73
2023-04-09T11:57:16.223Z,50.43
2023-04-09T11:58:16.284Z,50.46
2023-04-09T11:59:16.247Z,50.79
2023-04-09T12:00:16.208Z,50.89
2023-04-09T12:01:16.203Z,51.29
2023-04-09T12:02:16.359Z,51.32
2023-04-09T12:03:16.883Z,52.33
2023-04-09T12:04:16.372Z,52.53
2023-04-09T12:05:16.416Z,52.33
2023-04-09T12:06:16.121Z,52.20
2023-04-09T12:07:16.136Z,53.02
2023-04-09T12:08:16.142Z,52.81
2023-04-09T12:09:16.146Z,53.04
2023-04-09T12:10:16.147Z,53.34
2023-04-09T12:11:16.149Z,52.56
2023-04-09T12:12:16.126Z,53.37
2023-04-09T12:13:16.115Z,55.02
2023-04-09T12:14:16.122Z,55.53
2023-04-09T12:15:16.053Z,54.92
2023-04-09T12:16:16.194Z,54.61
2023-04-09T12:17:16.030Z,54.31
2023-04-09T12:18:16.042Z,53.70
2023-04-09T12:19:16.031Z,53.88
2023-04-09T12:20:15.993Z,53.98
2023-04-09T12:21:18.059Z,53.58
2023-04-09T12:22:16.003Z,52.86
2023-04-09T12:23:16.183Z,52.46
2023-04-09T12:24:16.019Z,52.86
2023-04-09T12:25:15.961Z,52.76
2023-04-09T12:26:15.923Z,51.52
2023-04-09T12:27:15.924Z,51.42
2023-04-09T12:28:15.972Z,51.72
2023-04-09T12:29:15.932Z,51.82
2023-04-09T12:30:15.940Z,51.29
2023-04-09T12:31:15.963Z,50.96
2023-04-09T12:32:15.882Z,50.59
2023-04-09T12:33:15.947Z,50.37
2023-04-09T12:34:15.813Z,47.83
2023-04-09T12:35:16.037Z,47.75
2023-04-09T12:36:15.879Z,46.87
2023-04-09T12:37:15.805Z,48.31
2023-04-09T12:38:15.823Z,48.33
2023-04-09T12:39:15.798Z,49.14
2023-04-09T12:40:15.868Z,48.94
2023-04-09T12:41:15.741Z,49.34
2023-04-09T12:42:15.869Z,49.34
2023-04-09T12:43:15.819Z,48.86
2023-04-09T12:44:15.752Z,49.39
2023-04-09T12:45:15.785Z,49.39
2023-04-09T12:46:15.780Z,50.02
2023-04-09T12:47:15.696Z,50.43
2023-04-09T12:48:15.756Z,51.14
2023-04-09T12:49:15.681Z,51.95
2023-04-09T12:50:15.720Z,50.43
2023-04-09T12:51:15.638Z,49.62
2023-04-09T12:52:15.697Z,50.23
2023-04-09T12:53:15.638Z,49.95